createdAt,value
2022-11-16T00:00:48.331Z,41.20
2022-11-16T00:03:52.612Z,38.00
2022-11-16T00:06:56.452Z,39.40
2022-11-16T00:09:59.801Z,40.00
2022-11-16T00:13:03.105Z,44.40
2022-11-16T00:16:09.237Z,44.00
2022-11-16T00:19:13.188Z,43.50
2022-11-16T00:22:16.576Z,44.75
2022-11-16T00:25:20.017Z,45.40
2022-11-16T00:28:25.704Z,44.20
2022-11-16T00:31:30.814Z,43.40
2022-11-16T00:34:34.934Z,41.00
2022-11-16T00:37:38.508Z,40.80
2022-11-16T00:40:42.109Z,42.00
2022-11-16T00:43:45.402Z,38.60
2022-11-16T00:46:50.145Z,38.00
2022-11-16T00:49:53.478Z,39.40
2022-11-16T00:52:57.491Z,41.00
2022-11-16T00:56:01.170Z,37.80
2022-11-16T00:59:07.437Z,40.40
2022-11-16T01:02:12.314Z,41.50
2022-11-16T01:05:17.576Z,39.00
2022-11-16T01:08:21.938Z,40.00
2022-11-16T01:11:43.651Z,41.00
2022-11-16T01:14:48.449Z,40.00
2022-11-16T01:17:54.773Z,41.40
2022-11-16T01:20:58.033Z,42.50
2022-11-16T01:24:01.365Z,41.00
2022-11-16T01:27:04.681Z,41.00
2022-11-16T01:30:14.346Z,44.80
2022-11-16T01:33:25.253Z,46.60
2022-11-16T01:36:29.051Z,45.00
2022-11-16T01:39:35.211Z,43.00
2022-11-16T01:42:39.994Z,43.80
2022-11-16T01:45:44.278Z,43.00
2022-11-16T01:48:59.674Z,43.75
2022-11-16T01:52:06.637Z,44.75
2022-11-16T01:55:13.548Z,43.00
2022-11-16T01:58:32.537Z,45.00
2022-11-16T02:01:50.801Z,44.00
2022-11-16T02:04:59.314Z,46.00
2022-11-16T02:08:53.170Z,48.80
2022-11-16T02:12:16.956Z,46.00
2022-11-16T02:15:27.822Z,47.00
2022-11-16T02:18:50.763Z,47.00
2022-11-16T02:22:06.403Z,48.00
2022-11-16T02:25:18.737Z,47.33
2022-11-16T02:28:35.652Z,45.00
2022-11-16T02:31:47.413Z,45.20
2022-11-16T02:34:56.087Z,46.00
2022-11-16T02:38:05.107Z,47.67
2022-11-16T02:41:14.097Z,47.00
2022-11-16T02:44:22.286Z,45.00
2022-11-16T02:47:32.451Z,45.00
2022-11-16T02:50:38.661Z,45.00
2022-11-16T02:53:53.877Z,46.25
2022-11-16T02:57:18.001Z,47.40
2022-11-16T03:00:24.147Z,45.50
2022-11-16T03:03:36.240Z,47.00
2022-11-16T03:06:43.801Z,47.20
2022-11-16T03:09:50.184Z,47.60
2022-11-16T03:12:52.721Z,47.00
2022-11-16T03:15:58.066Z,46.00
2022-11-16T03:19:06.732Z,47.00
2022-11-16T03:22:15.568Z,48.40
2022-11-16T03:25:22.243Z,47.00
2022-11-16T03:28:36.657Z,46.40
2022-11-16T03:31:48.536Z,45.25
2022-11-16T03:35:03.270Z,43.80
2022-11-16T03:38:10.285Z,46.80
2022-11-16T03:41:20.000Z,45.00
2022-11-16T03:44:23.776Z,45.00
2022-11-16T03:47:27.598Z,43.50
2022-11-16T03:50:32.553Z,43.00
2022-11-16T03:53:37.893Z,44.00
2022-11-16T03:56:41.197Z,41.40
2022-11-16T03:59:45.891Z,43.00
2022-11-16T04:02:49.323Z,42.75
2022-11-16T04:06:15.459Z,41.60
2022-11-16T04:09:36.447Z,39.20
2022-11-16T04:13:02.666Z,43.00
2022-11-16T04:16:23.629Z,43.00
2022-11-16T04:19:44.219Z,43.00
2022-11-16T04:23:11.886Z,44.00
2022-11-16T04:26:16.801Z,43.60
2022-11-16T04:29:19.730Z,40.00
2022-11-16T04:32:40.578Z,42.00
2022-11-16T04:36:01.542Z,43.00
2022-11-16T04:39:06.436Z,41.75
2022-11-16T04:42:15.922Z,45.00
2022-11-16T04:45:39.848Z,44.60
2022-11-16T04:48:44.119Z,39.20
2022-11-16T04:51:47.496Z,42.75
2022-11-16T04:54:52.552Z,41.80
2022-11-16T04:57:56.275Z,41.60
2022-11-16T05:01:01.532Z,47.25
2022-11-16T05:04:05.667Z,40.00
2022-11-16T05:07:11.251Z,41.00
2022-11-16T05:10:18.312Z,43.40
2022-11-16T05:13:21.927Z,43.00
2022-11-16T05:16:27.331Z,44.20
2022-11-16T05:19:48.120Z,43.40
2022-11-16T05:22:55.774Z,39.00
2022-11-16T05:26:02.379Z,44.40
2022-11-16T05:29:06.104Z,41.00
2022-11-16T05:32:11.153Z,43.00
2022-11-16T05:35:15.475Z,43.00
2022-11-16T05:38:20.010Z,43.00
2022-11-16T05:41:28.740Z,43.80
2022-11-16T05:44:33.105Z,43.00
2022-11-16T05:47:36.453Z,42.60
2022-11-16T05:50:43.008Z,40.00
2022-11-16T05:53:56.829Z,41.00
2022-11-16T05:57:01.976Z,39.20
2022-11-16T06:00:06.523Z,43.00
2022-11-16T06:03:18.915Z,43.00
2022-11-16T06:06:22.977Z,42.50
2022-11-16T06:09:27.482Z,40.00
2022-11-16T06:12:33.765Z,39.20
2022-11-16T06:15:38.731Z,41.67
2022-11-16T06:18:46.029Z,39.00
2022-11-16T06:21:51.112Z,40.60
2022-11-16T06:24:56.885Z,37.60
2022-11-16T06:28:06.668Z,38.60
2022-11-16T06:31:11.472Z,37.80
2022-11-16T06:34:18.211Z,39.00
2022-11-16T06:37:21.724Z,39.40
2022-11-16T06:40:25.140Z,39.20
2022-11-16T06:43:30.271Z,40.40
2022-11-16T06:46:33.608Z,41.80
2022-11-16T06:49:37.113Z,41.00
2022-11-16T06:52:46.933Z,38.60
2022-11-16T06:55:50.846Z,37.00
2022-11-16T06:58:56.960Z,39.00
2022-11-16T07:02:02.268Z,35.75
2022-11-16T07:05:09.384Z,36.00
2022-11-16T07:08:12.777Z,39.00
2022-11-16T07:11:16.602Z,37.00
2022-11-16T07:14:21.977Z,37.20
2022-11-16T07:17:25.703Z,37.80
2022-11-16T07:20:29.679Z,39.00
2022-11-16T07:23:33.933Z,37.00
2022-11-16T07:26:37.675Z,38.75
2022-11-16T07:29:53.554Z,34.40
2022-11-16T07:33:17.158Z,39.00
2022-11-16T07:36:39.303Z,43.00
2022-11-16T07:39:47.064Z,35.00
2022-11-16T07:42:50.783Z,38.25
2022-11-16T07:46:44.701Z,37.00
2022-11-16T07:49:32.972Z,38.60
2022-11-16T07:52:43.645Z,35.00
2022-11-16T07:55:54.519Z,40.75
2022-11-16T07:58:59.777Z,31.40
2022-11-16T08:02:06.166Z,35.00
2022-11-16T08:05:10.149Z,33.00
2022-11-16T08:08:15.359Z,35.00
2022-11-16T08:11:19.099Z,33.00
2022-11-16T08:14:22.719Z,33.00
2022-11-16T08:17:29.205Z,31.00
2022-11-16T08:20:36.970Z,32.00
2022-11-16T08:23:41.248Z,33.00
2022-11-16T08:26:44.813Z,33.20
2022-11-16T08:29:50.302Z,31.75
2022-11-16T08:32:54.960Z,31.00
2022-11-16T08:35:59.677Z,28.60
2022-11-16T08:39:03.063Z,30.00
2022-11-16T08:42:08.643Z,29.60
2022-11-16T08:45:12.857Z,26.60
2022-11-16T08:48:19.080Z,23.00
2022-11-16T08:51:22.647Z,26.40
2022-11-16T08:54:33.238Z,21.25
2022-11-16T08:57:36.466Z,23.40
2022-11-16T09:00:44.259Z,22.00
2022-11-16T09:03:49.290Z,20.00
2022-11-16T09:06:53.228Z,21.00
2022-11-16T09:09:56.567Z,20.00
2022-11-16T09:12:59.898Z,21.00
2022-11-16T09:16:03.343Z,20.20
2022-11-16T09:19:08.036Z,20.00
2022-11-16T09:22:11.714Z,16.60
2022-11-16T09:25:14.953Z,15.00
2022-11-16T09:28:19.449Z,17.50
2022-11-16T09:31:23.872Z,17.80
2022-11-16T09:34:28.771Z,16.75
2022-11-16T09:37:31.997Z,19.40
2022-11-16T09:40:37.670Z,17.50
2022-11-16T09:43:53.978Z,18.00
2022-11-16T09:46:59.998Z,14.25
2022-11-16T09:50:06.747Z,18.00
2022-11-16T09:53:31.768Z,17.00
2022-11-16T09:56:41.497Z,18.75
2022-11-16T09:59:48.465Z,13.00
2022-11-16T10:03:03.035Z,10.60
2022-11-16T10:06:18.573Z,13.00
2022-11-16T10:09:22.348Z,11.00
2022-11-16T10:12:32.881Z,13.50
2022-11-16T10:15:51.364Z,15.00
2022-11-16T10:18:58.712Z,13.00
2022-11-16T10:22:11.789Z,13.00
2022-11-16T10:25:19.373Z,16.00
2022-11-16T10:28:48.685Z,14.40
2022-11-16T10:32:04.336Z,13.75
2022-11-16T10:35:16.917Z,13.75
2022-11-16T10:38:25.107Z,13.00
2022-11-16T10:41:35.868Z,13.80
2022-11-16T10:44:43.264Z,13.40
2022-11-16T10:47:53.269Z,13.00
2022-11-16T10:50:57.571Z,12.00
2022-11-16T10:54:02.548Z,19.40
2022-11-16T10:57:13.996Z,18.80
2022-11-16T11:00:36.028Z,15.00
2022-11-16T11:03:39.605Z,18.40
2022-11-16T11:06:43.796Z,15.40
2022-11-16T11:09:53.916Z,11.40
2022-11-16T11:13:16.599Z,13.00
2022-11-16T11:16:19.971Z,16.50
2022-11-16T11:19:28.572Z,15.00
2022-11-16T11:22:33.394Z,13.00
2022-11-16T11:25:42.831Z,17.80
2022-11-16T11:28:50.656Z,13.00
2022-11-16T11:31:56.921Z,13.00
2022-11-16T11:35:01.782Z,12.75
2022-11-16T11:38:08.329Z,12.00
2022-11-16T11:41:20.240Z,13.00
2022-11-16T11:44:29.034Z,12.60
2022-11-16T11:47:58.666Z,14.20
2022-11-16T11:51:06.521Z,13.00
2022-11-16T11:54:19.308Z,15.00
2022-11-16T11:57:25.840Z,12.40
2022-11-16T12:00:39.082Z,13.75
2022-11-16T12:04:00.046Z,18.00
2022-11-16T12:07:13.704Z,12.40
2022-11-16T12:10:27.585Z,13.75
2022-11-16T12:13:52.302Z,10.00
2022-11-16T12:17:07.007Z,12.00
2022-11-16T12:20:28.239Z,16.60
2022-11-16T12:23:45.957Z,11.00
2022-11-16T12:27:02.210Z,16.00
2022-11-16T12:30:14.748Z,11.40
2022-11-16T12:33:28.821Z,9.75
2022-11-16T12:36:41.601Z,9.00
2022-11-16T12:39:49.863Z,7.40
2022-11-16T12:43:01.912Z,9.00
2022-11-16T12:46:17.433Z,9.00
2022-11-16T12:49:45.951Z,9.00
2022-11-16T12:53:06.618Z,8.00
2022-11-16T12:56:18.038Z,9.00
2022-11-16T12:59:39.422Z,9.00
2022-11-16T13:02:58.024Z,8.00
2022-11-16T13:06:04.720Z,6.00
2022-11-16T13:09:13.235Z,11.00
2022-11-16T13:12:20.495Z,5.00
2022-11-16T13:15:30.063Z,8.40
2022-11-16T13:18:38.237Z,10.20
2022-11-16T13:21:50.796Z,8.00
2022-11-16T13:24:59.782Z,10.20
2022-11-16T13:28:14.755Z,9.00
2022-11-16T13:31:25.936Z,10.00
2022-11-16T13:34:34.050Z,10.00
2022-11-16T13:37:48.233Z,11.00
2022-11-16T13:40:51.494Z,11.00
2022-11-16T13:43:54.775Z,11.40
2022-11-16T13:47:04.523Z,12.40
2022-11-16T13:50:19.609Z,9.00
2022-11-16T13:56:53.569Z,10.00
2022-11-16T14:00:13.319Z,12.00
2022-11-16T14:03:29.878Z,11.00
2022-11-16T14:07:00.377Z,5.00
2022-11-16T14:10:30.644Z,6.00
2022-11-16T14:13:42.778Z,6.00
2022-11-16T14:16:48.986Z,5.00
2022-11-16T14:19:57.766Z,4.00
2022-11-16T14:23:25.436Z,7.00
2022-11-16T14:26:44.169Z,7.00
2022-11-16T14:29:57.116Z,7.60
2022-11-16T14:33:00.408Z,9.00
2022-11-16T14:36:05.817Z,6.60
2022-11-16T14:39:30.944Z,5.00
2022-11-16T14:43:09.581Z,6.60
2022-11-16T14:46:17.975Z,8.00
2022-11-16T14:49:22.265Z,6.00
2022-11-16T14:52:32.926Z,5.40
2022-11-16T14:55:43.607Z,8.75
2022-11-16T14:58:54.230Z,5.00
2022-11-16T15:01:58.329Z,5.20
2022-11-16T15:05:02.381Z,6.00
2022-11-16T15:08:18.044Z,5.80
2022-11-16T15:11:49.344Z,10.75
2022-11-16T15:14:55.575Z,8.40
2022-11-16T15:18:13.519Z,9.00
2022-11-16T15:21:23.472Z,11.80
2022-11-16T15:24:31.320Z,8.25
2022-11-16T15:27:42.093Z,10.20
2022-11-16T15:30:49.636Z,11.00
2022-11-16T15:33:53.535Z,10.25
2022-11-16T15:36:56.795Z,10.00
2022-11-16T15:40:03.431Z,10.00
2022-11-16T15:43:08.769Z,8.25
2022-11-16T15:46:15.146Z,6.25
2022-11-16T15:49:29.684Z,6.60
2022-11-16T15:52:43.538Z,10.20
2022-11-16T15:55:51.405Z,9.40
2022-11-16T15:58:58.535Z,12.00
2022-11-16T16:02:02.185Z,10.20
2022-11-16T16:05:06.222Z,10.00
2022-11-16T16:08:30.301Z,11.00
2022-11-16T16:11:33.592Z,7.00
2022-11-16T16:14:38.684Z,8.00
2022-11-16T16:17:47.578Z,13.00
2022-11-16T16:20:50.820Z,10.00
2022-11-16T16:23:56.041Z,9.00
2022-11-16T16:26:59.292Z,11.00
2022-11-16T16:30:07.744Z,10.80
2022-11-16T16:33:22.136Z,10.00
2022-11-16T16:36:25.604Z,10.00
2022-11-16T16:39:29.250Z,10.00
2022-11-16T16:42:32.634Z,9.00
2022-11-16T16:45:39.107Z,8.00
2022-11-16T16:48:44.740Z,7.80
2022-11-16T16:51:48.211Z,9.00
2022-11-16T16:54:51.413Z,11.00
2022-11-16T16:57:56.734Z,10.00
2022-11-16T17:01:05.025Z,9.40
2022-11-16T17:04:08.695Z,8.60
2022-11-16T17:07:12.038Z,5.80
2022-11-16T17:10:15.329Z,10.00
2022-11-16T17:13:18.634Z,7.00
2022-11-16T17:16:23.802Z,9.40
2022-11-16T17:19:27.064Z,5.00
2022-11-16T17:22:30.325Z,7.40
2022-11-16T17:25:33.930Z,7.00
2022-11-16T17:28:37.377Z,8.25
2022-11-16T17:31:43.932Z,8.40
2022-11-16T17:34:47.688Z,8.00
2022-11-16T17:37:51.005Z,10.60
2022-11-16T17:40:54.224Z,12.00
2022-11-16T17:43:57.799Z,9.00
2022-11-16T17:47:02.627Z,8.00
2022-11-16T17:50:06.471Z,9.40
2022-11-16T17:53:09.819Z,7.50
2022-11-16T17:56:14.266Z,9.00
2022-11-16T17:59:17.541Z,10.00
2022-11-16T18:02:22.294Z,8.60
2022-11-16T18:05:25.580Z,8.00
2022-11-16T18:08:28.873Z,6.00
2022-11-16T18:11:32.220Z,6.75
2022-11-16T18:14:35.467Z,8.00
2022-11-16T18:17:40.195Z,7.00
2022-11-16T18:20:43.433Z,12.00
2022-11-16T18:23:46.931Z,8.60
2022-11-16T18:26:50.209Z,12.00
2022-11-16T18:29:53.540Z,8.25
2022-11-16T18:32:58.292Z,8.25
2022-11-16T18:36:01.562Z,5.00
2022-11-16T18:39:04.887Z,6.20
2022-11-16T18:42:08.673Z,8.00
2022-11-16T18:45:12.152Z,10.50
2022-11-16T18:48:16.923Z,8.00
2022-11-16T18:51:21.885Z,9.00
2022-11-16T18:54:25.107Z,11.00
2022-11-16T18:57:28.429Z,8.40
2022-11-16T19:00:31.746Z,10.00
2022-11-16T19:03:36.948Z,8.80
2022-11-16T19:06:40.483Z,6.00
2022-11-16T19:09:43.834Z,10.00
2022-11-16T19:12:47.245Z,9.00
2022-11-16T19:15:51.377Z,6.50
2022-11-16T19:18:56.484Z,8.67
2022-11-16T19:21:59.971Z,5.80
2022-11-16T19:25:06.059Z,10.00
2022-11-16T19:28:09.636Z,8.60
2022-11-16T19:31:14.952Z,9.75
2022-11-16T19:34:19.712Z,10.00
2022-11-16T19:37:23.266Z,11.00
2022-11-16T19:40:26.628Z,7.75
2022-11-16T19:43:30.045Z,8.00
2022-11-16T19:46:34.831Z,10.00
2022-11-16T19:49:39.886Z,9.20
2022-11-16T19:52:43.824Z,6.75
2022-11-16T19:55:54.501Z,10.60
2022-11-16T19:58:57.752Z,6.00
2022-11-16T20:02:01.038Z,9.00
2022-11-16T20:05:06.303Z,4.00
2022-11-16T20:08:10.832Z,8.00
2022-11-16T20:11:15.828Z,9.40
2022-11-16T20:14:19.537Z,9.60
2022-11-16T20:17:22.797Z,8.40
2022-11-16T20:20:27.530Z,6.00
2022-11-16T20:23:31.213Z,8.50
2022-11-16T20:26:37.634Z,8.00
2022-11-16T20:29:40.941Z,8.00
2022-11-16T20:32:44.120Z,13.00
2022-11-16T20:35:48.915Z,9.60
2022-11-16T20:38:52.635Z,12.00
2022-11-16T20:41:55.962Z,10.75
2022-11-16T20:44:59.464Z,8.80
2022-11-16T20:48:02.674Z,6.20
2022-11-16T20:51:09.103Z,11.40
2022-11-16T20:54:13.087Z,9.00
2022-11-16T20:57:16.476Z,8.00
2022-11-16T21:00:20.143Z,9.40
2022-11-16T21:03:23.471Z,7.00
2022-11-16T21:06:28.699Z,6.00
2022-11-16T21:09:51.990Z,10.40
2022-11-16T21:13:12.899Z,8.00
2022-11-16T21:16:16.493Z,8.80
2022-11-16T21:19:19.869Z,9.00
2022-11-16T21:22:27.073Z,7.00
2022-11-16T21:25:34.383Z,9.80
2022-11-16T21:28:38.025Z,6.60
2022-11-16T21:31:41.225Z,10.00
2022-11-16T21:34:44.621Z,6.00
2022-11-16T21:37:49.224Z,10.00
2022-11-16T21:40:52.901Z,9.00
2022-11-16T21:43:56.516Z,11.00
2022-11-16T21:47:00.275Z,8.00
2022-11-16T21:53:28.202Z,12.00
2022-11-16T21:56:31.851Z,6.20
2022-11-16T21:59:35.598Z,8.00
2022-11-16T22:02:39.099Z,6.60
2022-11-16T22:05:59.898Z,5.60
2022-11-16T22:09:04.740Z,10.00
2022-11-16T22:15:48.929Z,6.20
2022-11-16T22:18:52.804Z,9.00
2022-11-16T22:21:56.024Z,9.00
2022-11-16T22:25:00.748Z,11.80
2022-11-16T22:28:20.102Z,10.40
2022-11-16T22:31:24.184Z,9.40
2022-11-16T22:34:27.535Z,9.40
2022-11-16T22:37:30.818Z,10.00
2022-11-16T22:40:35.517Z,7.80
2022-11-16T22:43:39.143Z,10.00
2022-11-16T22:46:42.730Z,9.00
2022-11-16T22:49:45.991Z,12.00
2022-11-16T22:52:49.310Z,10.00
2022-11-16T22:55:53.972Z,9.75
2022-11-16T22:58:57.583Z,8.33
2022-11-16T23:02:01.444Z,8.00
2022-11-16T23:05:05.295Z,7.60
2022-11-16T23:08:09.016Z,6.00
2022-11-16T23:11:32.856Z,8.25
2022-11-16T23:14:53.292Z,9.00
2022-11-16T23:17:56.698Z,7.00
2022-11-16T23:21:17.170Z,9.00
2022-11-16T23:24:38.067Z,10.00
2022-11-16T23:27:46.246Z,9.00
2022-11-16T23:30:49.505Z,5.80
2022-11-16T23:33:52.804Z,4.00
2022-11-16T23:36:56.109Z,5.40
2022-11-16T23:39:59.374Z,6.00
2022-11-16T23:43:22.163Z,5.00
2022-11-16T23:46:25.655Z,3.00
2022-11-16T23:49:28.994Z,7.00
2022-11-16T23:52:32.360Z,7.00
2022-11-16T23:55:38.556Z,7.50
2022-11-16T23:58:43.429Z,5.67
